Data for 08/14/2008

Time Sea-Level Adjusted Pressure Absolute Pressure Temperature Relative Humidity Dew Point   
(mb) (inHg) (mb) (inHg) (C) (F) (%) (C) (F)
00:05 1022 30.18 851 25.13 17.1 62.8 36 1.9 35.4
00:10 1022 30.18 851 25.13 17.2 62.9 37 2.3 36.1
00:15 1022 30.18 851 25.13 17 62.6 39 3 37.5
00:20 1022 30.18 851 25.13 16.8 62.2 40 3.3 37.9
00:25 1022 30.18 851 25.13 16.6 61.8 40 3.1 37.5
00:30 1022 30.18 851 25.13 16.5 61.6 41 3.2 37.7
00:35 1022 30.18 851 25.13 16.3 61.3 42 3.6 38.5
00:40 1022 30.18 851 25.13 16.1 60.9 45 4.2 39.6
00:45 1022 30.18 851 25.13 15.8 60.5 48 4.8 40.7
00:50 1022 30.18 851 25.13 15.7 60.2 47 4.4 39.9
00:55 1022 30.18 851 25.13 15.7 60.3 47 4.4 40
01:00 1022 30.18 851 25.13 15.8 60.4 45 4 39.2
01:05 1022 30.18 851 25.13 15.9 60.6 46 4.5 40.1
01:10 1022 30.18 851 25.13 15.9 60.7 46 4.5 40.2
01:15 1022 30.18 851 25.13 15.6 60.2 46 4.1 39.4
01:20 1022 30.18 851 25.13 15.5 60 47 4.3 39.7
01:25 1022 30.18 851 25.13 15.5 59.8 49 4.8 40.7
01:30 1022 30.18 851 25.13 15.2 59.3 50 4.8 40.7
01:35 1022 30.18 851 25.13 15.2 59.3 49 4.6 40.4
01:40 1022 30.18 851 25.13 15.1 59.2 47 4.1 39.3
01:45 1022 30.18 851 25.13 15.3 59.5 47 4.2 39.5
01:50 1022 30.18 851 25.13 15.3 59.5 48 4.4 40
01:55 1022 30.18 851 25.13 15.1 59.2 49 4.5 40
02:00 1022 30.18 851 25.13 15.1 59.1 49 4.6 40.3
02:05 1022 30.18 851 25.13 15 59 49 4.4 40
02:10 1022 30.18 851 25.13 15 59 49 4.5 40
02:15 1022 30.18 851 25.13 15 58.9 49 4.4 39.9
02:20 1022 30.18 851 25.13 15 59.1 48 4.2 39.5
02:25 1022 30.18 851 25.13 15.1 59.2 49 4.7 40.4
02:30 1022 30.18 851 25.13 15.2 59.3 48 4.3 39.7
02:35 1022 30.18 851 25.13 15.2 59.4 48 4.4 40
02:40 1022 30.18 851 25.13 15.2 59.4 49 4.5 40.1
02:45 1022 30.18 851 25.13 15.3 59.5 47 4.2 39.6
02:50 1022 30.18 851 25.13 15.3 59.5 48 4.3 39.8
02:55 1022 30.18 851 25.13 15.3 59.5 47 4.1 39.3
03:00 1022 30.18 851 25.13 15.4 59.8 47 4.2 39.5
03:05 1022 30.18 851 25.13 15.4 59.6 49 4.7 40.4
03:10 1022 30.18 851 25.13 15.2 59.4 47 4.1 39.4
03:15 1022 30.18 851 25.13 15 59 49 4.4 39.9
03:20 1022 30.18 851 25.13 14.9 58.9 49 4.3 39.7
03:25 1022 30.18 851 25.13 14.9 58.8 48 4.2 39.5
03:30 1022 30.18 851 25.13 14.9 58.9 49 4.3 39.8
03:35 1022 30.18 851 25.13 14.8 58.7 50 4.5 40.1
03:40 1022 30.18 851 25.13 14.9 58.7 49 4.2 39.6
03:45 1022 30.18 851 25.13 15 58.9 49 4.3 39.8
03:50 1022 30.18 851 25.13 15.1 59.2 47 3.9 38.9
03:55 1022 30.18 851 25.13 15.4 59.7 45 3.7 38.7
04:00 1022 30.18 851 25.13 15.6 60 47 4.3 39.7
04:05 1022 30.18 851 25.13 15.6 60 50 5.2 41.4
04:10 1022 30.18 851 25.13 15.5 59.8 51 5.5 41.9
04:15 1022 30.18 851 25.13 15.4 59.7 49 4.9 40.8
04:20 1022 30.18 851 25.13 15.2 59.4 48 4.5 40.1
04:25 1022 30.18 851 25.13 15.3 59.5 50 5 40.9
04:30 1022 30.18 851 25.13 15.3 59.5 52 5.5 41.9
04:35 1022 30.18 851 25.13 15.2 59.4 50 5 41
04:40 1022 30.18 851 25.13 15.2 59.3 53 5.6 42.1
04:45 1022 30.18 852 25.16 15 58.9 54 5.7 42.3
04:50 1022 30.18 852 25.16 14.5 58.2 54 5.5 41.9
04:55 1022 30.18 852 25.16 14.3 57.7 56 5.7 42.3
05:00 1022 30.18 852 25.16 14.2 57.6 54 5 41
05:05 1022 30.18 852 25.16 14.4 57.9 53 5.1 41.2
05:10 1022 30.18 852 25.16 14.6 58.2 54 5.5 42
05:15 1022 30.18 852 25.16 14.5 58.2 54 5.4 41.7
05:20 1022 30.18 852 25.16 14.6 58.2 53 5.3 41.5
05:25 1022 30.18 852 25.16 14.5 58.1 55 5.7 42.2
05:30 1022 30.18 852 25.16 14.3 57.7 56 5.7 42.3
05:35 1023 30.21 852 25.16 14.1 57.4 56 5.5 41.8
05:40 1023 30.21 852 25.16 13.9 57.1 60 6.4 43.5
05:45 1023 30.21 852 25.16 13.4 56.2 60 6 42.7
05:50 1023 30.21 852 25.16 13.5 56.3 58 5.5 41.8
05:55 1023 30.21 852 25.16 13.7 56.7 56 5.2 41.4
06:00 1023 30.21 852 25.16 14 57.3 56 5.4 41.7
06:05 1023 30.21 852 25.16 14 57.2 57 5.7 42.3
06:10 1023 30.21 852 25.16 13.8 56.9 55 5.1 41.1
06:15 1023 30.21 852 25.16 13.9 57 56 5.3 41.5
06:20 1023 30.21 852 25.16 13.9 57.1 56 5.4 41.7
06:25 1023 30.21 852 25.16 13.9 57 55 5.2 41.3
06:30 1023 30.21 852 25.16 13.9 57 54 4.8 40.7
06:35 1023 30.21 853 25.19 13.8 56.9 54 4.6 40.3
06:40 1023 30.21 853 25.19 14 57.3 52 4.4 39.9
06:45 1023 30.21 853 25.19 14.2 57.5 53 4.7 40.4
06:50 1023 30.21 853 25.19 14.1 57.4 53 4.9 40.8
06:55 1023 30.21 853 25.19 14.3 57.7 54 5.2 41.4
07:00 1024 30.24 853 25.19 14.4 57.9 54 5.4 41.7
07:05 1024 30.24 853 25.19 14.5 58 54 5.3 41.5
07:10 1024 30.24 853 25.19 14.6 58.2 54 5.4 41.8
07:15 1024 30.24 853 25.19 14.6 58.2 54 5.5 41.9
07:20 1024 30.24 853 25.19 14.5 58.2 55 5.7 42.3
07:25 1024 30.24 853 25.19 14.6 58.2 55 5.6 42.1
07:30 1024 30.24 853 25.19 14.7 58.4 54 5.7 42.2
07:35 1024 30.24 853 25.19 14.7 58.4 54 5.7 42.2
07:40 1024 30.24 853 25.19 14.7 58.5 55 5.8 42.5
07:45 1024 30.24 853 25.19 14.8 58.6 55 5.9 42.7
07:50 1024 30.24 853 25.19 14.8 58.6 55 6 42.8
07:55 1024 30.24 853 25.19 14.9 58.8 55 6.1 42.9
08:00 1024 30.24 853 25.19 14.9 58.8 56 6.2 43.2
08:05 1024 30.24 853 25.19 15 58.9 55 6.2 43.2
08:10 1024 30.24 853 25.19 15.1 59.1 56 6.4 43.5
08:15 1024 30.24 853 25.19 15.1 59.1 55 6.2 43.2
08:20 1024 30.24 853 25.19 15.1 59.2 55 6.4 43.4
08:25 1024 30.24 853 25.19 15.2 59.3 57 6.7 44
08:30 1024 30.24 853 25.19 14.9 58.9 57 6.6 43.9
08:35 1024 30.24 853 25.19 14.8 58.6 57 6.5 43.7
08:40 1024 30.24 853 25.19 14.8 58.7 57 6.5 43.8
08:45 1024 30.24 853 25.19 14.8 58.6 57 6.5 43.7
08:50 1024 30.24 853 25.19 14.9 58.7 58 6.6 44
08:55 1024 30.24 854 25.22 15 59.1 57 6.6 44
09:00 1024 30.24 854 25.22 15.3 59.5 55 6.5 43.6
09:05 1024 30.24 854 25.22 15.6 60.1 54 6.4 43.6
09:10 1024 30.24 854 25.22 15.6 60.1 55 6.6 44
09:15 1025 30.27 854 25.22 15.6 60.2 55 6.7 44
09:20 1025 30.27 854 25.22 15.8 60.5 55 6.8 44.2
09:25 1025 30.27 854 25.22 15.8 60.4 55 6.7 44.1
09:30 1025 30.27 854 25.22 15.9 60.5 54 6.5 43.8
09:35 1025 30.27 854 25.22 16.1 61 53 6.6 43.8
09:40 1025 30.27 854 25.22 16.3 61.3 52 6.6 43.9
09:45 1025 30.27 854 25.22 16.6 61.9 52 6.7 44.1
09:50 1025 30.27 854 25.22 17.6 63.7 49 6.9 44.3
09:55 1025 30.27 854 25.22 18.3 64.9 48 7.3 45.2
10:00 1025 30.27 854 25.22 18.2 64.7 48 7.2 44.9
10:05 1025 30.27 854 25.22 17.9 64.3 48 7 44.6
10:10 1025 30.27 854 25.22 17.9 64.2 49 7.1 44.7
10:15 1025 30.27 854 25.22 18 64.3 48 6.9 44.4
10:20 1025 30.27 854 25.22 18.3 64.9 45 6.4 43.4
10:25 1025 30.27 854 25.22 18.9 66 46 7.1 44.7
10:30 1025 30.27 854 25.22 19.1 66.3 43 6.2 43.1
10:35 1025 30.27 854 25.22 19.5 67.1 42 6.3 43.4
10:40 1025 30.27 854 25.22 19.8 67.7 40 5.9 42.7
10:45 1025 30.27 854 25.22 20.6 69.1 40 6.8 44.3
10:50 1025 30.27 854 25.22 20.2 68.3 39 6 42.8
10:55 1025 30.27 854 25.22 19.6 67.4 42 6.6 43.9
11:00 1025 30.27 854 25.22 20.8 69.5 37 5.7 42.3
11:05 1025 30.27 854 25.22 21.5 70.6 37 6.3 43.3
11:10 1025 30.27 854 25.22 19.8 67.6 40 6.1 42.9
11:15 1025 30.27 854 25.22 19.9 67.7 41 6.3 43.4
11:20 1025 30.27 854 25.22 20.1 68.2 40 6.4 43.5
11:25 1025 30.27 854 25.22 20.3 68.6 36 4.9 40.9
11:30 1025 30.27 854 25.22 20.7 69.2 38 6 42.8
11:35 1025 30.27 854 25.22 21.6 70.8 33 4.6 40.3
11:40 1025 30.27 854 25.22 22.4 72.3 32 5 41
11:45 1025 30.27 854 25.22 22.6 72.6 33 5.7 42.3
11:50 1025 30.27 854 25.22 22 71.6 35 6.1 42.9
11:55 1025 30.27 854 25.22 21.3 70.4 32 4.3 39.7
12:00 1025 30.27 854 25.22 22.2 72 32 4.8 40.7
12:05 1025 30.27 854 25.22 22.2 72 33 5.2 41.4
12:10 1025 30.27 854 25.22 21.9 71.4 34 5.4 41.7
12:15 1025 30.27 854 25.22 22.2 71.9 31 4.5 40.2
12:20 1025 30.27 854 25.22 22.8 73.1 32 5.4 41.8
12:25 1025 30.27 854 25.22 23.1 73.5 32 5.6 42.1
12:30 1025 30.27 854 25.22 23.3 74 30 5 40.9
12:35 1025 30.27 854 25.22 23.5 74.2 31 5.7 42.3
12:40 1025 30.27 854 25.22 22.8 73.1 31 5.2 41.3
12:45 1025 30.27 854 25.22 23.3 74 31 5.4 41.7
12:50 1025 30.27 854 25.22 24 75.3 30 5.7 42.2
12:55 1025 30.27 854 25.22 24.3 75.7 30 6 42.8
13:00 1025 30.27 854 25.22 23 73.4 34 6.5 43.6
13:05 1025 30.27 854 25.22 21.6 70.8 33 5 41
13:10 1025 30.27 854 25.22 22 71.7 34 5.4 41.8
13:15 1025 30.27 854 25.22 22.2 72 36 6.4 43.6
13:20 1025 30.27 854 25.22 21.6 70.9 34 5.2 41.4
13:25 1025 30.27 854 25.22 21.6 71 31 4.1 39.4
13:30 1025 30.27 854 25.22 21.8 71.3 34 5.3 41.5
13:35 1025 30.27 854 25.22 22.2 72 34 5.6 42
13:40 1025 30.27 854 25.22 22.2 72 34 5.8 42.4
13:45 1025 30.27 854 25.22 22.8 73 33 5.8 42.4
13:50 1025 30.27 854 25.22 22.4 72.3 36 6.7 44.1
13:55 1025 30.27 854 25.22 21.7 71.1 36 6.2 43.2
14:00 1025 30.27 854 25.22 21.6 70.8 35 5.5 41.8
14:05 1025 30.27 854 25.22 22.4 72.2 34 6.1 42.9
14:10 1025 30.27 854 25.22 22.8 73 32 5.4 41.7
14:15 1025 30.27 854 25.22 23.4 74.2 30 5.3 41.6
14:20 1025 30.27 854 25.22 23.4 74.1 32 6.1 42.9
14:25 1025 30.27 854 25.22 23.1 73.6 32 5.8 42.4
14:30 1025 30.27 854 25.22 23.3 73.9 30 5.1 41.2
14:35 1025 30.27 854 25.22 24.3 75.8 29 5.2 41.3
14:40 1025 30.27 854 25.22 24.3 75.8 29 5.5 42
14:45 1024 30.24 854 25.22 23.3 73.9 32 5.8 42.5
14:50 1024 30.24 854 25.22 23.1 73.5 32 5.8 42.4
14:55 1025 30.27 854 25.22 22.8 73 32 5.5 41.9
15:00 1025 30.27 854 25.22 22.8 73.1 32 5.7 42.3
15:05 1025 30.27 854 25.22 23 73.5 31 5.1 41.2
15:10 1025 30.27 854 25.22 23.7 74.7 29 4.7 40.5
15:15 1024 30.24 854 25.22 24.5 76 29 5.7 42.2
15:20 1024 30.24 854 25.22 23.5 74.4 30 5.3 41.5
15:25 1024 30.24 854 25.22 24.6 76.2 29 5.6 42.1
15:30 1024 30.24 854 25.22 23.5 74.3 33 6.4 43.6
15:35 1024 30.24 854 25.22 22.1 71.7 34 5.8 42.4
15:40 1024 30.24 854 25.22 22.4 72.3 32 5 41
15:45 1024 30.24 854 25.22 23.1 73.5 31 5.1 41.1
15:50 1024 30.24 854 25.22 23.1 73.7 33 6.1 42.9
15:55 1024 30.24 854 25.22 22.6 72.7 33 5.6 42
16:00 1024 30.24 854 25.22 22.7 72.8 33 5.6 42.1
16:05 1024 30.24 853 25.19 23.1 73.6 29 4.3 39.8
16:10 1024 30.24 853 25.19 23.9 74.9 30 5.4 41.7
16:15 1024 30.24 853 25.19 23.3 74 29 4.6 40.3
16:20 1024 30.24 853 25.19 23.1 73.6 30 4.6 40.3
16:25 1024 30.24 853 25.19 23.6 74.5 28 4.4 39.9
16:30 1024 30.24 853 25.19 23.7 74.7 28 4.4 39.9
16:35 1024 30.24 853 25.19 23.5 74.4 29 4.9 40.8
16:40 1024 30.24 853 25.19 23.3 73.9 28 4.1 39.4
16:45 1024 30.24 853 25.19 24.2 75.5 28 4.6 40.3
16:50 1024 30.24 853 25.19 23.6 74.5 27 3.7 38.7
16:55 1024 30.24 853 25.19 23.7 74.7 26 3.4 38.1
17:00 1024 30.24 853 25.19 23.8 74.8 26 3.2 37.7
17:05 1024 30.24 853 25.19 24 75.2 25 2.9 37.2
17:10 1024 30.24 853 25.19 23.6 74.4 25 2.8 37.1
17:15 1024 30.24 853 25.19 22.9 73.3 27 2.9 37.3
17:20 1024 30.24 854 25.22 22.6 72.7 27 2.6 36.7
17:25 1024 30.24 854 25.22 22.7 72.9 28 3.3 38
17:30 1024 30.24 854 25.22 22.5 72.5 28 3.2 37.7
17:35 1024 30.24 854 25.22 22.3 72.1 29 3.4 38.1
17:40 1024 30.24 854 25.22 22.1 71.8 29 3.3 37.9
17:45 1024 30.24 854 25.22 22.1 71.8 29 3.6 38.4
17:50 1024 30.24 854 25.22 22.3 72.2 29 3.8 38.8
17:55 1024 30.24 854 25.22 22.2 71.9 29 3.5 38.3
18:00 1025 30.27 854 25.22 21.8 71.2 30 3.8 38.9
18:05 1024 30.24 854 25.22 21.8 71.3 30 3.8 38.9
18:10 1025 30.27 854 25.22 21.6 70.9 31 3.8 38.8
18:15 1025 30.27 854 25.22 21.4 70.6 31 3.8 38.8
18:20 1025 30.27 854 25.22 21.6 70.9 31 3.7 38.7
18:25 1025 30.27 854 25.22 21.6 70.8 30 3.6 38.4
18:30 1025 30.27 854 25.22 21.3 70.4 31 3.6 38.5
18:35 1025 30.27 854 25.22 21.7 71 30 3.7 38.6
18:40 1025 30.27 854 25.22 21.8 71.2 31 4 39.2
18:45 1025 30.27 854 25.22 21.8 71.3 30 3.8 38.8
18:50 1025 30.27 854 25.22 21.6 71 31 3.9 39.1
18:55 1025 30.27 854 25.22 21.3 70.4 31 3.6 38.4
19:00 1025 30.27 854 25.22 21.2 70.2 32 3.8 38.9
19:05 1025 30.27 854 25.22 21 69.9 32 3.9 38.9
19:10 1025 30.27 854 25.22 21 69.8 33 4.2 39.6
19:15 1025 30.27 854 25.22 20.9 69.5 32 3.9 39.1
19:20 1025 30.27 854 25.22 20.7 69.3 33 3.9 38.9
19:25 1025 30.27 854 25.22 20.6 69.2 33 3.9 39
19:30 1025 30.27 854 25.22 20.6 69 33 4 39.2
19:35 1025 30.27 854 25.22 20.6 69 32 3.5 38.3
19:40 1025 30.27 854 25.22 20.5 68.9 33 3.9 39
19:45 1025 30.27 854 25.22 20.4 68.8 33 3.8 38.9
19:50 1025 30.27 854 25.22 20.4 68.6 32 3.4 38.1
19:55 1025 30.27 854 25.22 20.4 68.6 32 3.3 37.9
20:00 1025 30.27 854 25.22 20.4 68.8 32 3.4 38.1
20:05 1025 30.27 854 25.22 20.3 68.6 32 3.4 38.1
20:10 1025 30.27 854 25.22 20.3 68.6 32 3.4 38.1
20:15 1025 30.27 854 25.22 20.4 68.7 32 3.4 38.1
20:20 1025 30.27 854 25.22 20.3 68.5 33 3.4 38.2
20:25 1025 30.27 854 25.22 20.1 68.2 33 3.5 38.4
20:30 1025 30.27 854 25.22 20 67.9 33 3.4 38.1
20:35 1025 30.27 854 25.22 19.8 67.6 33 3.4 38
20:40 1025 30.27 854 25.22 19.6 67.3 33 3 37.4
20:45 1025 30.27 854 25.22 19.5 67.1 32 2.6 36.7
20:50 1025 30.27 855 25.25 19.5 67 32 2.7 36.8
20:55 1025 30.27 855 25.25 19.3 66.8 32 2.4 36.3
21:00 1025 30.27 855 25.25 19.3 66.7 32 2.4 36.3
21:05 1025 30.27 855 25.25 19.3 66.7 33 2.7 36.9
21:10 1025 30.27 855 25.25 19.1 66.5 33 2.5 36.4
21:15 1026 30.3 855 25.25 18.9 66.1 33 2.6 36.7
21:20 1026 30.3 855 25.25 18.8 65.9 33 2.6 36.6
21:25 1026 30.3 855 25.25 18.8 65.8 34 2.6 36.8
21:30 1026 30.3 855 25.25 18.7 65.6 34 2.6 36.7
21:35 1026 30.3 855 25.25 18.7 65.7 33 2.3 36.2
21:40 1026 30.3 855 25.25 18.8 65.8 33 2.3 36.2
21:45 1026 30.3 855 25.25 18.7 65.7 34 2.6 36.6
21:50 1026 30.3 855 25.25 18.8 65.8 33 2.3 36.1
21:55 1026 30.3 855 25.25 18.8 65.8 33 2.4 36.3
22:00 1026 30.3 855 25.25 18.9 65.9 33 2.5 36.4
22:05 1026 30.3 855 25.25 18.8 65.9 34 2.6 36.7
22:10 1026 30.3 855 25.25 18.7 65.7 34 2.6 36.7
22:15 1026 30.3 855 25.25 18.6 65.5 35 2.9 37.2
22:20 1026 30.3 855 25.25 18.5 65.3 35 3 37.4
22:25 1026 30.3 855 25.25 18.4 65.1 37 3.4 38.1
22:30 1026 30.3 855 25.25 18.2 64.7 37 3.4 38.1
22:35 1026 30.3 855 25.25 18 64.3 36 2.9 37.2
22:40 1026 30.3 855 25.25 18 64.4 37 3.1 37.6
22:45 1026 30.3 855 25.25 17.9 64.3 37 3.3 37.9
22:50 1026 30.3 855 25.25 17.8 64.1 38 3.5 38.3
22:55 1026 30.3 855 25.25 17.8 64 39 3.7 38.7
23:00 1026 30.3 855 25.25 17.7 63.8 40 4 39.1
23:05 1026 30.3 855 25.25 17.4 63.2 41 4 39.2
23:10 1026 30.3 855 25.25 17.2 62.9 42 4.4 40
23:15 1026 30.3 855 25.25 17.1 62.9 45 5.2 41.3
23:20 1026 30.3 855 25.25 16.3 61.4 48 5.2 41.4
23:25 1026 30.3 855 25.25 15.8 60.5 49 5.1 41.2
23:30 1026 30.3 855 25.25 15.7 60.2 50 5.2 41.4
23:35 1026 30.3 855 25.25 15.3 59.5 50 5 41
23:40 1026 30.3 855 25.25 15.5 60 48 4.8 40.6
23:45 1026 30.3 855 25.25 15.9 60.5 48 4.8 40.7
23:50 1026 30.3 855 25.25 16 60.8 46 4.6 40.3
23:55 1026 30.3 855 25.25 16.3 61.3 43 3.8 38.8
24:00 1026 30.3 855 25.25 16.7 62.1 44 4.5 40